createdAt,value
2022-12-05T00:00:08.365Z,76.30
2022-12-05T00:05:12.112Z,78.20
2022-12-05T00:10:13.961Z,82.88
2022-12-05T00:15:15.803Z,75.90
2022-12-05T00:20:17.829Z,82.97
2022-12-05T00:25:19.584Z,75.97
2022-12-05T00:30:22.157Z,85.40
2022-12-05T00:35:24.516Z,79.00
2022-12-05T00:40:26.385Z,70.50
2022-12-05T00:45:28.265Z,74.80
2022-12-05T00:50:30.066Z,62.63
2022-12-05T00:55:33.771Z,72.35
2022-12-05T01:00:35.522Z,69.95
2022-12-05T01:05:37.760Z,91.72
2022-12-05T01:10:39.568Z,65.55
2022-12-05T01:15:41.283Z,85.60
2022-12-05T01:20:43.901Z,69.15
2022-12-05T01:25:49.126Z,76.50
2022-12-05T01:30:51.021Z,84.78
2022-12-05T01:35:52.883Z,74.88
2022-12-05T01:41:05.034Z,76.55
2022-12-05T01:46:06.935Z,69.72
2022-12-05T01:51:09.101Z,81.43
2022-12-05T01:56:11.734Z,88.13
2022-12-05T02:01:15.307Z,78.15
2022-12-05T02:06:17.505Z,82.05
2022-12-05T02:11:19.919Z,72.75
2022-12-05T02:16:52.574Z,92.72
2022-12-05T02:22:25.275Z,93.22
2022-12-05T02:27:47.284Z,78.20
2022-12-05T02:33:01.667Z,87.43
2022-12-05T02:38:35.881Z,86.05
2022-12-05T02:43:54.930Z,96.43
2022-12-05T02:49:01.558Z,94.82
2022-12-05T02:54:07.823Z,91.97
2022-12-05T02:59:09.664Z,87.00
2022-12-05T03:04:13.687Z,78.85
2022-12-05T03:09:23.816Z,83.95
2022-12-05T03:14:47.315Z,54.75
2022-12-05T03:20:10.380Z,83.97
2022-12-05T03:25:13.913Z,82.22
2022-12-05T03:30:18.991Z,79.13
2022-12-05T03:35:50.257Z,77.53
2022-12-05T03:41:03.967Z,85.45
2022-12-05T03:46:12.637Z,77.97
2022-12-05T03:51:16.706Z,75.60
2022-12-05T03:56:40.526Z,78.13
2022-12-05T04:01:43.658Z,76.18
2022-12-05T04:06:48.592Z,75.38
2022-12-05T04:11:57.163Z,73.28
2022-12-05T04:17:04.606Z,77.72
2022-12-05T04:22:06.920Z,70.32
2022-12-05T04:27:33.243Z,81.70
2022-12-05T04:32:54.722Z,79.35
2022-12-05T04:38:06.834Z,81.35
2022-12-05T04:43:10.821Z,96.65
2022-12-05T04:48:16.165Z,82.25
2022-12-05T04:53:19.487Z,80.55
2022-12-05T04:58:23.634Z,83.13
2022-12-05T05:03:28.011Z,91.90
2022-12-05T05:08:30.281Z,88.88
2022-12-05T05:13:32.032Z,85.10
2022-12-05T05:18:34.253Z,83.05
2022-12-05T05:23:36.002Z,88.53
2022-12-05T05:28:37.723Z,90.97
2022-12-05T05:33:39.513Z,81.72
2022-12-05T05:38:45.631Z,94.28
2022-12-05T05:43:48.748Z,95.20
2022-12-05T05:48:51.519Z,83.25
2022-12-05T05:53:53.439Z,87.93
2022-12-05T05:58:57.562Z,90.07
2022-12-05T06:03:59.533Z,78.10
2022-12-05T06:09:01.408Z,81.13
2022-12-05T06:14:03.177Z,99.65
2022-12-05T06:19:04.938Z,91.03
2022-12-05T06:24:07.158Z,82.63
2022-12-05T06:29:09.010Z,90.53
2022-12-05T06:34:10.765Z,86.28
2022-12-05T06:39:12.593Z,87.32
2022-12-05T06:44:14.381Z,93.60
2022-12-05T06:49:16.510Z,85.20
2022-12-05T06:54:18.248Z,73.60
2022-12-05T06:59:20.067Z,81.00
2022-12-05T07:04:26.187Z,82.55
2022-12-05T07:10:01.355Z,85.55
2022-12-05T07:15:03.578Z,67.75
2022-12-05T07:20:07.276Z,81.90
2022-12-05T07:25:09.317Z,72.55
2022-12-05T07:30:11.387Z,79.70
2022-12-05T07:35:13.167Z,70.18
2022-12-05T07:40:15.178Z,73.40
2022-12-05T07:45:17.227Z,73.20
2022-12-05T07:50:19.034Z,62.33
2022-12-05T07:55:20.782Z,67.00
2022-12-05T08:00:22.901Z,72.07
2022-12-05T08:05:24.649Z,68.57
2022-12-05T08:10:26.605Z,58.28
2022-12-05T08:15:28.429Z,61.05
2022-12-05T08:20:30.668Z,62.97
2022-12-05T08:25:33.884Z,67.65
2022-12-05T08:30:35.800Z,77.03
2022-12-05T08:35:38.101Z,62.55
2022-12-05T08:40:39.961Z,63.78
2022-12-05T08:45:41.786Z,63.25
2022-12-05T08:50:43.717Z,61.25
2022-12-05T08:55:48.435Z,67.28
2022-12-05T09:00:50.244Z,78.78
2022-12-05T09:05:54.823Z,67.97
2022-12-05T09:10:56.768Z,62.42
2022-12-05T09:15:58.682Z,60.25
2022-12-05T09:21:06.768Z,55.97
2022-12-05T09:26:12.119Z,68.22
2022-12-05T09:31:16.913Z,60.42
2022-12-05T09:36:28.265Z,62.92
2022-12-05T09:42:10.892Z,58.33
2022-12-05T09:47:20.672Z,58.65
2022-12-05T09:52:38.466Z,61.67
2022-12-05T09:57:47.243Z,63.58
2022-12-05T10:03:10.099Z,69.65
2022-12-05T10:08:36.644Z,56.58
2022-12-05T10:13:41.783Z,63.38
2022-12-05T10:18:48.830Z,71.57
2022-12-05T10:23:58.307Z,64.43
2022-12-05T10:29:19.461Z,42.43
2022-12-05T10:39:32.692Z,61.38
2022-12-05T10:44:34.868Z,59.10
2022-12-05T10:49:38.373Z,55.47
2022-12-05T10:55:04.092Z,41.92
2022-12-05T11:00:15.349Z,42.20
2022-12-05T11:05:28.220Z,42.20
2022-12-05T11:10:34.508Z,33.45
2022-12-05T11:15:48.424Z,37.55
2022-12-05T11:20:52.749Z,32.80
2022-12-05T11:25:58.727Z,34.75
2022-12-05T11:31:12.695Z,28.85
2022-12-05T11:36:23.623Z,30.13
2022-12-05T11:42:07.493Z,25.13
2022-12-05T11:47:21.878Z,29.00
2022-12-05T11:52:36.079Z,28.77
2022-12-05T11:58:08.393Z,28.92
2022-12-05T12:03:34.458Z,29.00
2022-12-05T12:09:34.712Z,29.23
2022-12-05T12:15:00.436Z,27.88
2022-12-05T12:20:16.779Z,27.42
2022-12-05T12:25:39.544Z,30.15
2022-12-05T12:30:56.223Z,29.67
2022-12-05T12:36:26.237Z,25.75
2022-12-05T12:41:54.826Z,28.97
2022-12-05T12:47:01.007Z,28.80
2022-12-05T12:52:11.557Z,29.70
2022-12-05T12:57:28.395Z,22.95
2022-12-05T13:02:45.417Z,26.75
2022-12-05T13:08:10.288Z,26.63
2022-12-05T13:13:22.391Z,24.63
2022-12-05T13:18:26.006Z,27.50
2022-12-05T13:23:31.587Z,26.63
2022-12-05T13:28:44.828Z,29.02
2022-12-05T13:33:51.139Z,28.48
2022-12-05T13:39:21.248Z,24.05
2022-12-05T13:44:57.247Z,26.67
2022-12-05T13:50:16.484Z,29.65
2022-12-05T13:55:39.106Z,27.23
2022-12-05T14:00:40.932Z,29.17
2022-12-05T14:05:50.611Z,27.05
2022-12-05T14:10:52.310Z,21.15
2022-12-05T14:16:10.673Z,27.95
2022-12-05T14:21:22.210Z,27.25
2022-12-05T14:26:39.834Z,27.08
2022-12-05T14:31:44.856Z,28.88
2022-12-05T14:37:00.141Z,32.92
2022-12-05T14:42:05.517Z,33.03
2022-12-05T14:47:07.399Z,30.90
2022-12-05T14:52:12.228Z,29.42
2022-12-05T14:57:16.423Z,32.45
2022-12-05T15:02:33.523Z,28.08
2022-12-05T15:07:38.875Z,38.47
2022-12-05T15:12:56.625Z,34.53
2022-12-05T15:18:08.734Z,26.90
2022-12-05T15:23:41.644Z,34.10
2022-12-05T15:29:08.300Z,35.20
2022-12-05T15:34:19.088Z,30.23
2022-12-05T15:39:25.730Z,38.13
2022-12-05T15:44:34.227Z,37.70
2022-12-05T15:49:39.195Z,33.90
2022-12-05T15:54:42.571Z,35.70
2022-12-05T16:00:02.076Z,36.65
2022-12-05T16:05:04.272Z,40.08
2022-12-05T16:10:06.952Z,33.63
2022-12-05T16:15:23.303Z,33.78
2022-12-05T16:20:37.085Z,35.13
2022-12-05T16:25:39.054Z,37.97
2022-12-05T16:30:41.131Z,40.28
2022-12-05T16:35:47.382Z,38.47
2022-12-05T16:40:49.110Z,31.83
2022-12-05T16:45:53.181Z,41.15
2022-12-05T16:51:13.396Z,44.30
2022-12-05T16:56:31.430Z,37.83
2022-12-05T17:01:38.695Z,35.78
2022-12-05T17:06:41.058Z,42.53
2022-12-05T17:11:46.007Z,46.72
2022-12-05T17:16:47.939Z,41.35
2022-12-05T17:21:49.823Z,41.72
2022-12-05T17:26:51.740Z,41.65
2022-12-05T17:31:53.639Z,46.70
2022-12-05T17:36:55.660Z,47.10
2022-12-05T17:41:57.496Z,43.25
2022-12-05T17:47:07.487Z,39.20
2022-12-05T17:52:27.151Z,46.15
2022-12-05T17:57:29.151Z,41.92
2022-12-05T18:02:31.116Z,47.03
2022-12-05T18:07:33.103Z,42.83
2022-12-05T18:12:36.024Z,43.92
2022-12-05T18:17:38.248Z,44.47
2022-12-05T18:22:40.055Z,51.15
2022-12-05T18:27:42.927Z,43.33
2022-12-05T18:32:45.078Z,51.90
2022-12-05T18:37:46.927Z,44.25
2022-12-05T18:42:52.300Z,43.88
2022-12-05T18:48:00.591Z,49.35
2022-12-05T18:53:11.897Z,46.70
2022-12-05T18:58:13.684Z,48.55
2022-12-05T19:03:15.443Z,57.58
2022-12-05T19:08:17.423Z,52.22
2022-12-05T19:13:20.864Z,57.78
2022-12-05T19:18:23.888Z,52.88
2022-12-05T19:23:26.197Z,54.65
2022-12-05T19:28:29.340Z,47.88
2022-12-05T19:33:33.771Z,58.20
2022-12-05T19:38:36.017Z,51.00
2022-12-05T19:43:38.889Z,54.25
2022-12-05T19:48:40.721Z,54.45
2022-12-05T19:53:44.182Z,60.05
2022-12-05T19:58:47.334Z,51.58
2022-12-05T20:03:52.209Z,52.72
2022-12-05T20:08:54.493Z,53.20
2022-12-05T20:13:57.916Z,56.05
2022-12-05T20:19:00.116Z,52.70
2022-12-05T20:24:03.364Z,58.30
2022-12-05T20:29:06.228Z,54.40
2022-12-05T20:34:10.765Z,53.13
2022-12-05T20:39:18.080Z,62.63
2022-12-05T20:44:20.040Z,62.85
2022-12-05T20:49:21.886Z,71.03
2022-12-05T20:54:23.857Z,59.13
2022-12-05T20:59:25.775Z,61.97
2022-12-05T21:04:27.527Z,57.78
2022-12-05T21:09:31.735Z,66.18
2022-12-05T21:14:34.424Z,63.47
2022-12-05T21:19:36.343Z,59.33
2022-12-05T21:24:38.276Z,57.65
2022-12-05T21:29:40.065Z,63.28
2022-12-05T21:34:41.907Z,63.00
2022-12-05T21:39:43.633Z,59.40
2022-12-05T21:44:45.798Z,66.13
2022-12-05T21:49:47.684Z,67.18
2022-12-05T21:54:49.569Z,59.90
2022-12-05T21:59:51.325Z,61.22
2022-12-05T22:04:53.064Z,63.65
2022-12-05T22:09:54.841Z,59.75
2022-12-05T22:14:56.674Z,55.63
2022-12-05T22:19:58.748Z,54.40
2022-12-05T22:25:01.024Z,49.90
2022-12-05T22:30:03.081Z,52.78
2022-12-05T22:35:05.018Z,51.97
2022-12-05T22:40:07.469Z,55.00
2022-12-05T22:45:09.909Z,57.60
2022-12-05T22:50:12.145Z,58.67
2022-12-05T22:55:13.933Z,49.30
2022-12-05T23:00:15.984Z,44.70
2022-12-05T23:05:17.879Z,59.63
2022-12-05T23:10:19.846Z,42.70
2022-12-05T23:15:21.735Z,41.95
2022-12-05T23:20:23.674Z,37.00
2022-12-05T23:25:26.352Z,44.28
2022-12-05T23:30:28.333Z,37.50
2022-12-05T23:35:30.187Z,37.38
2022-12-05T23:40:32.023Z,40.08
2022-12-05T23:45:34.196Z,32.70
2022-12-05T23:50:36.455Z,33.95
2022-12-05T23:55:38.328Z,34.58
